Hatsu Ethic — VQFS4 — position and weather

sailwx.info

Track history (hours):
 
Tides and Currents Weather Stations Pressure Air Temp Water Temp Dewpoint Dewpoint Depression Visibility Wind Speed Wind Dir Waves Ship Positions

Hatsu Ethic

Last reported at 2014-Jul-25 12:00 UTC. Time now 2014-Aug-01 13:50 UTC.
Position N 41°06' E 017°36'.

Type: Ship (hazmat cat D). MMSI: 235603000.

Wind from 310 at 12 knots

Waves 1.0 meters (3 feet), 2 second period

Barometer 1013.4 mb
Air temperature 25.0 ° C
Visibility: greater than 27.0 NM
Water temperature 24.0 ° C

Date/timePositionNaut miles runAvg speedWind from/ knotsBaromVisibWave heightAir tempDewpointWater temp
2014-Jul-25 12:00N 41°06' E 017°36'79 6.6 310 / 121013.427.0 1.025.0 24.0
2014-Jul-25 00:00N 39°48' E 017°54'196 4.1 320 / 61010.5 24.0 24.0
2014-Jul-23 00:00N 37°18' E 020°36'13711.4 220 / 121008.5 24.0 25.0
2014-Jul-22 12:00N 35°36' E 022°30'12 7.5 280 / 171010.027.0 1.527.0 25.0
2014-Jul-22 10:25N 35°31' E 022°43'1111.1
2014-Jul-22 09:23N 35°23' E 022°53'1010.9
2014-Jul-22 08:26N 35°16' E 023°02'24612.1
2014-Jul-21 12:00N 32°48' E 027°00'14812.3 290 / 141008.027.0 1.027.0 25.0
2014-Jul-21 00:00N 31°24' E 029°24'   290 / 81007.5 26.0 25.0
2014-Jul-16 19:17N 31°55' E 034°15'1820.1
2014-Jul-16 18:24N 31°57' E 033°54'2220.0
2014-Jul-16 17:19N 31°51' E 033°29'1520.3
2014-Jul-16 16:33N 31°48' E 033°12'2120.6
2014-Jul-16 15:33N 31°42' E 032°48'2020.0
2014-Jul-16 14:33N 31°36' E 032°26'1817.9
2014-Jul-16 13:33N 31°18' E 032°22'1010.1
2014-Jul-16 12:33N 31°08' E 032°19'  
Track history (hours):
 
Tides and Currents Weather Stations Pressure Air Temp Water Temp Dewpoint Dewpoint Depression Visibility Wind Speed Wind Dir Waves Ship Positions

Hatsu Ethic

Last reported at 2014-Jul-25 12:00 UTC. Time now 2014-Aug-01 13:50 UTC.
Position N 41°06' E 017°36'.

Type: Ship (hazmat cat D). MMSI: 235603000.

Wind from 310 at 12 knots

Waves 1.0 meters (3 feet), 2 second period

Barometer 1013.4 mb
Air temperature 25.0 ° C
Visibility: greater than 27.0 NM
Water temperature 24.0 ° C

Date/timePositionNaut miles runAvg speedWind from/ knotsBaromVisibWave heightAir tempDewpointWater temp
2014-Jul-25 12:00N 41°06' E 017°36'79 6.6 310 / 121013.427.0 1.025.0 24.0
2014-Jul-25 00:00N 39°48' E 017°54'196 4.1 320 / 61010.5 24.0 24.0
2014-Jul-23 00:00N 37°18' E 020°36'13711.4 220 / 121008.5 24.0 25.0
2014-Jul-22 12:00N 35°36' E 022°30'12 7.5 280 / 171010.027.0 1.527.0 25.0
2014-Jul-22 10:25N 35°31' E 022°43'1111.1
2014-Jul-22 09:23N 35°23' E 022°53'1010.9
2014-Jul-22 08:26N 35°16' E 023°02'24612.1
2014-Jul-21 12:00N 32°48' E 027°00'14812.3 290 / 141008.027.0 1.027.0 25.0
2014-Jul-21 00:00N 31°24' E 029°24'   290 / 81007.5 26.0 25.0
2014-Jul-16 19:17N 31°55' E 034°15'1820.1
2014-Jul-16 18:24N 31°57' E 033°54'2220.0
2014-Jul-16 17:19N 31°51' E 033°29'1520.3
2014-Jul-16 16:33N 31°48' E 033°12'2120.6
2014-Jul-16 15:33N 31°42' E 032°48'2020.0
2014-Jul-16 14:33N 31°36' E 032°26'1817.9
2014-Jul-16 13:33N 31°18' E 032°22'1010.1
2014-Jul-16 12:33N 31°08' E 032°19'  

Dump ship's entire track history